Time;durP1;ratioP1;P1;durP2;ratioP2;P2;SDS_P1;SDS_P2;PMS_P1;PMS_P2;Temp;Humidity;BMP_temperature;BMP_pressure;BME280_temperature;BME280_humidity;BME280_pressure;Samples;Min_cycle;Max_cycle;Signal;HPM_P1;HPM_P2
2023/05/13 00:01:26;;;;;;;19.27;7.73;;;9.50;99.90;8.00;101371;;;;578608;248;24119;-80
2023/05/13 00:03:54;;;;;;;18.67;7.30;;;9.00;99.90;8.00;101370;;;;566989;252;25214;-79
2023/05/13 00:06:22;;;;;;;14.20;7.57;;;9.00;99.90;7.90;101367;;;;578256;247;24097;-78
2023/05/13 00:08:51;;;;;;;14.77;6.77;;;8.70;99.90;7.90;101363;;;;567025;252;24139;-76
2023/05/13 00:11:18;;;;;;;20.20;8.10;;;8.90;99.90;7.90;101368;;;;578344;247;24086;-80
2023/05/13 00:13:47;;;;;;;15.13;7.47;;;8.80;99.90;7.90;101370;;;;567052;252;24141;-74
2023/05/13 00:16:15;;;;;;;16.13;7.97;;;8.70;99.90;7.80;101365;;;;578353;247;24123;-80
2023/05/13 00:18:44;;;;;;;14.57;7.17;;;8.70;99.90;7.80;101366;;;;567124;252;24134;-80
2023/05/13 00:21:13;;;;;;;15.57;7.60;;;8.80;99.90;7.80;101370;;;;579285;247;24113;-80
2023/05/13 00:23:41;;;;;;;17.52;10.60;;;8.90;99.90;7.80;101362;;;;563289;252;35429;-79
2023/05/13 00:26:10;;;;;;;18.63;8.87;;;8.70;99.90;7.80;101366;;;;579008;247;24301;-78
2023/05/13 00:28:38;;;;;;;17.93;8.87;;;8.40;99.90;7.80;101361;;;;567934;252;24211;-77
2023/05/13 00:31:06;;;;;;;23.57;12.03;;;8.90;99.90;7.80;101370;;;;574151;247;35385;-78
2023/05/13 00:33:33;;;;;;;17.17;9.17;;;9.90;99.90;7.80;101370;;;;570076;248;24102;-75
2023/05/13 00:36:02;;;;;;;28.37;9.30;;;8.60;99.90;7.70;101369;;;;567637;252;24116;-75
2023/05/13 00:38:34;;;;;;;19.53;8.37;;;8.60;99.90;7.70;101362;;;;578542;247;24089;-74
2023/05/13 00:40:59;;;;;;;14.57;8.30;;;9.10;99.90;7.60;101368;;;;558983;252;24149;-76
2023/05/13 00:43:27;;;;;;;22.55;11.98;;;8.60;99.90;7.60;101361;;;;573394;247;35367;-79
2023/05/13 00:45:56;;;;;;;18.90;9.60;;;8.50;99.90;7.60;101357;;;;569826;248;24117;-75
2023/05/13 00:48:28;;;;;;;16.17;8.67;;;8.50;99.90;7.60;101367;;;;567314;252;25228;-73
2023/05/13 00:50:53;;;;;;;19.57;8.73;;;8.60;99.90;7.60;101366;;;;570191;248;25156;-75
2023/05/13 00:53:21;;;;;;;21.83;10.10;;;8.20;99.90;7.60;101366;;;;567370;247;24150;-74
2023/05/13 00:55:50;;;;;;;20.23;10.07;;;8.50;99.90;7.60;101371;;;;578413;247;24100;-76
2023/05/13 00:58:20;;;;;;;26.63;9.70;;;8.40;99.90;7.60;101379;;;;569507;248;24095;-74
2023/05/13 01:00:55;;;;;;;19.70;9.43;;;8.20;99.90;7.60;101373;;;;558591;252;24155;-74
2023/05/13 01:03:25;;;;;;;30.30;10.40;;;8.40;99.90;7.50;101376;;;;569583;248;24103;-74
2023/05/13 01:06:08;;;;;;;15.17;8.87;;;8.40;99.90;7.50;101370;;;;569003;248;24121;-76
2023/05/13 01:08:58;;;;;;;18.57;9.00;;;8.20;99.90;7.50;101372;;;;558689;252;24124;-74
2023/05/13 01:11:33;;;;;;;23.93;9.67;;;8.40;99.90;7.50;101372;;;;572896;248;24100;-73
2023/05/13 01:14:13;;;;;;;21.10;8.53;;;8.10;99.90;7.50;101372;;;;558602;252;24145;-74
2023/05/13 01:16:44;;;;;;;20.20;9.73;;;8.40;99.90;7.50;101375;;;;577073;247;24107;-74
2023/05/13 01:19:15;;;;;;;15.80;9.03;;;8.30;99.90;7.50;101373;;;;569191;248;24104;-73
2023/05/13 01:21:44;;;;;;;16.83;9.33;;;8.30;99.90;7.40;101372;;;;569036;248;24107;-73
2023/05/13 01:24:12;;;;;;;20.60;9.27;;;8.10;99.90;7.40;101372;;;;566442;252;24140;-74
2023/05/13 01:26:41;;;;;;;19.53;10.13;;;8.30;99.90;7.40;101374;;;;578398;247;25137;-73
2023/05/13 01:29:09;;;;;;;24.10;10.10;;;8.30;99.90;7.40;101380;;;;569518;248;24126;-73
2023/05/13 01:31:39;;;;;;;15.07;8.80;;;8.30;99.90;7.40;101369;;;;569718;246;24112;-79
2023/05/13 01:34:04;;;;;;;30.00;11.33;;;8.30;99.90;7.40;101372;;;;560311;251;24197;-80
2023/05/13 01:36:33;;;;;;;24.87;9.93;;;8.30;99.90;7.40;101372;;;;570831;247;24110;-77
2023/05/13 01:39:01;;;;;;;26.30;11.57;;;8.40;99.90;7.30;101373;;;;568189;252;24117;-77
2023/05/13 01:41:29;;;;;;;21.13;11.13;;;8.30;99.90;7.30;101375;;;;570433;248;24204;-79
2023/05/13 01:43:58;;;;;;;25.07;10.57;;;8.20;99.90;7.30;101382;;;;570323;248;24170;-78
2023/05/13 01:46:26;;;;;;;19.90;9.33;;;8.20;99.90;7.20;101382;;;;570284;248;24164;-75
2023/05/13 01:48:55;;;;;;;25.93;11.30;;;8.10;99.90;7.20;101378;;;;565804;249;24156;-74
2023/05/13 01:51:23;;;;;;;18.87;9.90;;;8.00;99.90;7.10;101379;;;;578882;247;24132;-74
2023/05/13 01:53:51;;;;;;;20.57;10.47;;;9.10;99.90;7.10;101375;;;;567690;252;24097;-74
2023/05/13 01:56:20;;;;;;;19.17;10.50;;;8.20;99.90;7.10;101378;;;;578880;247;25186;-79
2023/05/13 01:58:48;;;;;;;17.03;9.50;;;8.00;99.90;7.10;101373;;;;569657;248;24095;-78
2023/05/13 02:01:16;;;;;;;23.57;9.77;;;8.00;99.90;7.10;101385;;;;567269;252;24183;-74
2023/05/13 02:03:44;;;;;;;25.00;10.80;;;7.90;99.90;7.10;101382;;;;578890;248;24109;-75
2023/05/13 02:06:13;;;;;;;23.90;9.47;;;8.00;99.90;7.10;101378;;;;569699;248;24118;-75
2023/05/13 02:08:41;;;;;;;19.60;9.37;;;7.90;99.90;7.10;101376;;;;567321;252;24097;-75
2023/05/13 02:11:10;;;;;;;16.57;9.50;;;8.50;99.90;7.10;101390;;;;578316;247;24095;-79
2023/05/13 02:13:38;;;;;;;26.77;13.32;;;8.10;99.90;7.10;101386;;;;562350;252;35414;-74
2023/05/13 02:16:07;;;;;;;24.77;10.20;;;8.10;99.90;7.20;101382;;;;578267;247;24123;-76
2023/05/13 02:18:35;;;;;;;30.37;13.27;;;8.10;99.90;7.20;101391;;;;569337;248;24103;-74
2023/05/13 02:21:03;;;;;;;35.97;12.97;;;8.00;99.90;7.20;101392;;;;569526;248;24110;-76
2023/05/13 02:23:31;;;;;;;33.67;12.90;;;7.90;99.90;7.30;101391;;;;569398;248;24091;-73
2023/05/13 02:25:59;;;;;;;28.30;11.97;;;7.80;99.90;7.20;101381;;;;569507;248;24116;-76
2023/05/13 02:28:28;;;;;;;26.10;12.00;;;8.10;99.90;7.30;101389;;;;569455;248;24139;-79
2023/05/13 02:30:56;;;;;;;23.70;10.90;;;8.70;99.90;7.30;101383;;;;569398;248;24107;-78
2023/05/13 02:33:24;;;;;;;28.20;10.90;;;8.20;99.90;7.30;101391;;;;569379;248;24114;-79
2023/05/13 02:35:53;;;;;;;20.80;9.13;;;8.20;99.90;7.30;101392;;;;569833;248;24092;-75
2023/05/13 02:38:21;;;;;;;16.03;9.47;;;8.30;99.90;7.30;101383;;;;567403;252;24179;-78
2023/05/13 02:40:49;;;;;;;28.57;10.43;;;8.10;99.90;7.30;101395;;;;578623;247;24109;-74
2023/05/13 02:43:20;;;;;;;25.03;10.33;;;8.00;99.90;7.30;101381;;;;570208;247;24129;-75
2023/05/13 02:45:46;;;;;;;23.80;10.80;;;8.20;99.90;7.30;101382;;;;570981;247;24105;-74
2023/05/13 02:48:14;;;;;;;28.37;12.23;;;8.30;99.90;7.30;101390;;;;570731;247;24159;-79
2023/05/13 02:50:42;;;;;;;20.50;10.10;;;8.10;99.90;7.30;101394;;;;570497;247;24120;-79
2023/05/13 02:53:10;;;;;;;27.07;10.73;;;8.10;99.90;7.20;101399;;;;570492;248;24104;-73
2023/05/13 02:55:38;;;;;;;25.37;11.60;;;8.10;99.90;7.20;101389;;;;570372;248;24132;-74
2023/05/13 02:58:06;;;;;;;18.73;10.27;;;7.90;99.90;7.30;101385;;;;570125;248;24117;-76
2023/05/13 03:00:34;;;;;;;23.20;11.17;;;9.10;99.90;7.30;101381;;;;570167;248;24098;-72
2023/05/13 03:03:03;;;;;;;21.97;10.77;;;8.20;99.90;7.30;101382;;;;569735;248;24076;-72
2023/05/13 03:05:31;;;;;;;28.00;11.77;;;8.10;99.90;7.30;101391;;;;574376;248;24126;-74
2023/05/13 03:07:59;;;;;;;32.20;15.50;;;11.70;99.90;7.30;101383;;;;570138;248;24105;-74
2023/05/13 03:10:28;;;;;;;26.17;11.60;;;8.20;99.90;7.30;101382;;;;570142;248;24156;-79
2023/05/13 03:12:56;;;;;;;22.93;11.20;;;8.20;99.90;7.40;101390;;;;570208;248;24152;-76
2023/05/13 03:15:24;;;;;;;23.73;11.03;;;8.40;99.90;7.50;101385;;;;570072;248;24101;-80
2023/05/13 03:17:53;;;;;;;24.47;10.60;;;8.40;99.90;7.50;101391;;;;570071;248;24116;-75
2023/05/13 03:20:21;;;;;;;30.20;10.27;;;9.00;99.90;7.60;101388;;;;569875;248;24104;-73
2023/05/13 03:22:52;;;;;;;22.80;9.33;;;8.30;99.90;7.70;101394;;;;569852;248;24110;-80
2023/05/13 03:25:24;;;;;;;25.80;10.63;;;8.60;99.90;7.80;101393;;;;567320;252;24136;-76
2023/05/13 03:27:52;;;;;;;22.00;9.57;;;8.60;99.90;7.90;101393;;;;579309;248;24107;-74
2023/05/13 03:30:21;;;;;;;21.70;11.45;;;8.80;99.90;8.00;101391;;;;562483;252;35535;-74
2023/05/13 03:32:49;;;;;;;14.60;8.83;;;8.90;99.90;8.10;101384;;;;578614;247;24094;-73
2023/05/13 03:35:18;;;;;;;17.73;8.13;;;9.00;99.90;8.20;101398;;;;567221;251;24147;-75
2023/05/13 03:37:46;;;;;;;17.77;8.87;;;9.10;99.90;8.30;101396;;;;578267;247;24113;-79
2023/05/13 03:40:17;;;;;;;20.70;8.30;;;9.20;99.90;8.40;101396;;;;566960;252;24136;-77
2023/05/13 03:42:42;;;;;;;15.63;8.17;;;9.30;99.90;8.60;101404;;;;578059;248;24113;-75
2023/05/13 03:45:11;;;;;;;26.43;8.40;;;9.60;99.90;8.90;101403;;;;566926;252;24177;-74
2023/05/13 03:47:39;;;;;;;26.65;11.43;;;10.70;99.90;9.80;101403;;;;573276;247;35385;-76
2023/05/13 03:50:10;;;;;;;27.17;9.07;;;11.50;99.90;10.80;101401;;;;569543;248;24083;-77
2023/05/13 03:52:36;;;;;;;23.13;10.07;;;13.40;99.90;11.80;101400;;;;569536;248;24103;-72
2023/05/13 03:55:07;;;;;;;16.87;8.27;;;13.30;99.90;12.70;101414;;;;570164;247;24094;-76
2023/05/13 03:57:31;;;;;;;16.60;9.33;;;14.40;99.90;13.60;101407;;;;570290;247;24108;-76
2023/05/13 04:00:00;;;;;;;14.77;8.90;;;15.30;99.90;14.50;101418;;;;570864;247;24100;-75
2023/05/13 04:02:28;;;;;;;16.93;9.47;;;15.90;99.90;15.20;101420;;;;570678;247;24163;-74
2023/05/13 04:04:56;;;;;;;21.80;11.63;;;16.40;99.90;15.90;101420;;;;565585;248;35386;-75
2023/05/13 04:07:24;;;;;;;19.87;9.63;;;17.40;99.90;16.60;101427;;;;570140;248;24096;-75
2023/05/13 04:09:51;;;;;;;16.80;10.00;;;18.30;99.90;17.30;101428;;;;569999;248;23109;-75
2023/05/13 04:12:19;;;;;;;15.87;9.97;;;18.80;99.90;18.00;101431;;;;570115;248;24107;-76
2023/05/13 04:14:48;;;;;;;17.33;9.47;;;19.60;99.90;18.70;101437;;;;569795;248;23142;-78
2023/05/13 04:17:16;;;;;;;19.37;9.93;;;20.50;99.80;19.40;101435;;;;569882;248;24145;-72
2023/05/13 04:19:44;;;;;;;19.00;10.47;;;21.10;96.70;20.20;101437;;;;578451;248;24072;-76
2023/05/13 04:22:13;;;;;;;22.80;10.03;;;21.90;94.30;20.90;101439;;;;570091;248;24092;-74
2023/05/13 04:24:42;;;;;;;19.33;10.73;;;22.60;91.70;21.60;101438;;;;569790;248;24084;-74
2023/05/13 04:27:10;;;;;;;17.43;9.17;;;23.30;88.50;22.30;101443;;;;569742;248;23101;-75
2023/05/13 04:29:39;;;;;;;16.73;9.43;;;24.00;83.70;22.90;101449;;;;569860;248;23117;-74
2023/05/13 04:32:08;;;;;;;11.57;8.67;;;24.70;79.20;23.60;101446;;;;569574;248;23127;-74
2023/05/13 04:34:36;;;;;;;17.47;9.37;;;25.30;75.20;24.20;101452;;;;569647;248;23127;-74
2023/05/13 04:37:05;;;;;;;11.73;8.87;;;25.90;72.60;24.70;101459;;;;569934;248;24139;-74
2023/05/13 04:39:34;;;;;;;13.33;8.53;;;26.60;69.30;25.50;101456;;;;569910;248;23105;-74
2023/05/13 04:42:02;;;;;;;18.20;9.20;;;27.20;66.00;26.10;101456;;;;569873;248;23102;-75
2023/05/13 04:44:32;;;;;;;16.55;8.43;;;27.50;62.70;26.80;101452;;;;569869;248;23189;-75
2023/05/13 04:46:58;;;;;;;14.20;9.15;;;28.50;60.50;27.40;101459;;;;578505;248;24212;-75
2023/05/13 04:49:26;;;;;;;19.75;9.60;;;28.50;60.80;28.00;101465;;;;569870;248;24121;-77
2023/05/13 04:51:54;;;;;;;17.60;8.38;;;29.20;58.90;28.70;101465;;;;569935;248;23100;-75
2023/05/13 04:54:22;;;;;;;12.40;7.40;;;29.80;57.40;29.40;101477;;;;569880;248;23086;-74
2023/05/13 04:56:50;;;;;;;21.42;10.63;;;31.20;54.10;30.00;101471;;;;569877;248;23140;-75
2023/05/13 04:59:19;;;;;;;10.13;7.85;;;31.60;53.00;30.50;101470;;;;572721;248;23116;-75
2023/05/13 05:01:49;;;;;;;11.63;7.57;;;31.60;53.00;31.00;101471;;;;569489;248;23099;-76
2023/05/13 05:04:14;;;;;;;10.90;7.28;;;32.20;52.00;31.50;101478;;;;578100;248;23110;-74
2023/05/13 05:06:42;;;;;;;13.45;7.18;;;32.70;51.10;32.00;101482;;;;570464;247;23093;-73
2023/05/13 05:09:10;;;;;;;10.82;7.65;;;33.00;50.20;32.50;101487;;;;570676;247;23159;-76
2023/05/13 05:11:38;;;;;;;20.98;7.95;;;33.50;49.40;33.00;101489;;;;570486;247;23100;-74
2023/05/13 05:14:06;;;;;;;10.52;6.75;;;34.00;48.50;33.50;101494;;;;570294;247;24130;-75
2023/05/13 05:16:34;;;;;;;10.90;6.30;;;34.50;47.50;33.80;101492;;;;570148;248;23102;-75
2023/05/13 05:19:02;;;;;;;11.18;7.50;;;35.20;46.10;34.20;101494;;;;570064;248;23101;-75
2023/05/13 05:21:30;;;;;;;7.60;6.60;;;35.20;46.50;34.70;101497;;;;570164;248;24154;-75
2023/05/13 05:24:00;;;;;;;8.77;6.57;;;35.60;45.60;34.90;101503;;;;570023;248;23097;-75
2023/05/13 05:26:26;;;;;;;12.60;5.65;;;36.00;45.00;35.30;101506;;;;570072;248;23131;-75
2023/05/13 05:28:54;;;;;;;6.68;5.47;;;36.30;44.30;35.70;101505;;;;570180;248;23121;-76
2023/05/13 05:31:22;;;;;;;14.32;5.78;;;36.60;43.50;36.10;101506;;;;570176;248;23102;-73
2023/05/13 05:33:49;;;;;;;12.80;6.10;;;36.90;42.90;36.40;101507;;;;570235;248;24157;-75
2023/05/13 05:36:21;;;;;;;14.48;6.40;;;37.20;42.20;36.80;101517;;;;569818;248;23174;-75
2023/05/13 05:38:46;;;;;;;14.18;5.28;;;37.50;41.70;37.20;101513;;;;569627;248;23106;-78
2023/05/13 05:41:13;;;;;;;7.90;5.72;;;37.90;40.90;37.50;101518;;;;569790;248;24164;-77
2023/05/13 05:43:41;;;;;;;15.63;7.65;;;38.30;39.80;38.00;101517;;;;569572;248;23133;-81
2023/05/13 05:46:09;;;;;;;10.13;5.93;;;38.60;39.40;38.30;101519;;;;578329;248;23152;-79
2023/05/13 05:48:38;;;;;;;11.25;5.60;;;39.50;38.40;38.70;101518;;;;569489;248;23093;-75
2023/05/13 05:51:06;;;;;;;11.25;5.62;;;39.40;38.30;39.00;101525;;;;569657;248;24111;-73
2023/05/13 05:53:34;;;;;;;9.07;5.85;;;39.70;37.30;39.20;101527;;;;569626;248;23113;-75
2023/05/13 05:56:02;;;;;;;8.45;5.62;;;39.90;36.10;39.20;101523;;;;569362;248;23148;-75
2023/05/13 05:58:31;;;;;;;6.35;5.22;;;40.00;36.10;39.20;101526;;;;578193;248;23109;-75
2023/05/13 06:00:59;;;;;;;10.25;5.35;;;40.00;36.00;39.20;101531;;;;569549;248;23124;-78
2023/05/13 06:03:27;;;;;;;6.95;5.37;;;40.00;35.60;39.30;101529;;;;569621;248;23136;-73
2023/05/13 06:05:55;;;;;;;12.15;6.20;;;40.10;35.60;39.30;101524;;;;569537;248;23090;-79
2023/05/13 06:08:28;;;;;;;7.15;5.55;;;40.10;36.70;39.70;101529;;;;569935;248;23186;-77
2023/05/13 06:10:51;;;;;;;11.27;6.95;;;40.30;35.90;40.20;101524;;;;569574;248;23105;-75
2023/05/13 06:13:18;;;;;;;12.68;6.15;;;40.70;35.10;40.60;101522;;;;564487;248;35396;-76
2023/05/13 06:15:46;;;;;;;28.85;8.65;;;41.10;35.60;40.90;101530;;;;569580;248;23086;-77
2023/05/13 06:18:14;;;;;;;6.40;5.50;;;41.40;35.40;41.30;101535;;;;570039;247;23185;-76
2023/05/13 06:20:42;;;;;;;10.82;6.12;;;41.80;34.60;41.60;101533;;;;570866;247;24135;-75
2023/05/13 06:23:10;;;;;;;15.07;6.50;;;42.10;34.20;41.80;101527;;;;570467;247;23072;-75
2023/05/13 06:25:38;;;;;;;17.15;6.12;;;42.40;35.00;42.10;101535;;;;570239;247;23100;-77
2023/05/13 06:28:07;;;;;;;8.82;5.03;;;42.60;34.30;42.50;101528;;;;570229;248;23107;-76
2023/05/13 06:30:34;;;;;;;9.43;5.53;;;42.90;33.10;42.50;101530;;;;569925;248;23108;-80
2023/05/13 06:33:02;;;;;;;8.43;5.85;;;43.10;33.00;42.60;101531;;;;578838;248;23124;-79
2023/05/13 06:35:30;;;;;;;6.93;5.10;;;43.20;32.90;42.90;101527;;;;570069;248;23101;-78
2023/05/13 06:37:58;;;;;;;8.88;5.15;;;43.50;33.10;43.50;101537;;;;570093;248;24200;-77
2023/05/13 06:40:26;;;;;;;8.73;4.97;;;43.90;32.60;43.60;101536;;;;569802;248;23087;-81
2023/05/13 06:42:54;;;;;;;8.57;5.78;;;44.10;31.70;43.60;101538;;;;569665;248;23134;-75
2023/05/13 06:45:24;;;;;;;9.15;5.53;;;44.10;32.00;43.70;101543;;;;569859;248;23144;-74
2023/05/13 06:47:54;;;;;;;9.82;5.28;;;44.10;31.90;44.10;101541;;;;569712;248;23133;-75
2023/05/13 06:50:19;;;;;;;61.10;10.57;;;44.50;31.40;44.40;101539;;;;569846;248;23101;-80
2023/05/13 06:52:47;;;;;;;9.45;6.07;;;44.80;31.30;44.80;101538;;;;579495;248;23122;-76
2023/05/13 06:55:18;;;;;;;13.65;5.82;;;45.10;30.90;44.80;101542;;;;569553;248;23108;-76
2023/05/13 06:57:45;;;;;;;20.62;7.65;;;45.20;31.00;45.10;101533;;;;569186;248;23141;-77
2023/05/13 07:00:11;;;;;;;12.95;7.20;;;45.50;30.50;45.20;101544;;;;569422;248;23109;-80
2023/05/13 07:02:38;;;;;;;8.80;5.75;;;45.60;29.90;45.30;101540;;;;569482;248;23167;-80
2023/05/13 07:05:06;;;;;;;9.25;5.80;;;45.70;29.20;45.10;101538;;;;564616;248;35351;-75
2023/05/13 07:07:34;;;;;;;8.77;5.80;;;45.70;29.30;44.90;101540;;;;569831;248;23108;-76
2023/05/13 07:10:02;;;;;;;14.35;7.18;;;45.60;29.60;45.30;101534;;;;569850;248;23137;-79
2023/05/13 07:12:30;;;;;;;10.23;7.00;;;45.70;29.70;45.50;101542;;;;569431;248;24131;-75
2023/05/13 07:14:58;;;;;;;14.20;6.00;;;45.90;28.90;45.40;101539;;;;569669;248;23086;-74
2023/05/13 07:17:26;;;;;;;13.10;5.45;;;45.90;29.20;45.50;101538;;;;569569;248;23101;-75
2023/05/13 07:19:54;;;;;;;12.77;5.47;;;46.00;29.30;45.60;101533;;;;569831;248;23100;-74
2023/05/13 07:22:22;;;;;;;9.27;5.70;;;46.10;29.20;45.50;101536;;;;569635;248;23094;-78
2023/05/13 07:24:50;;;;;;;10.32;5.53;;;46.00;29.10;45.30;101541;;;;569518;248;23105;-81
2023/05/13 07:27:18;;;;;;;7.03;5.18;;;46.10;29.50;45.60;101535;;;;569609;248;23107;-78
2023/05/13 07:29:47;;;;;;;13.50;6.05;;;46.40;29.60;46.10;101533;;;;570035;247;23119;-77
2023/05/13 07:32:16;;;;;;;12.23;6.60;;;46.50;30.30;46.20;101527;;;;570904;247;23122;-79
2023/05/13 07:34:44;;;;;;;11.00;5.80;;;46.60;29.70;46.10;101531;;;;570448;247;23093;-81
2023/05/13 07:37:13;;;;;;;27.55;7.57;;;46.50;29.70;46.20;101531;;;;570692;247;23090;-81
2023/05/13 07:39:43;;;;;;;9.63;5.07;;;46.70;29.70;46.40;101529;;;;570688;248;23114;-76
2023/05/13 07:42:15;;;;;;;9.20;6.03;;;47.10;29.80;46.90;101529;;;;570252;248;23110;-76
2023/05/13 07:44:40;;;;;;;13.15;6.30;;;47.40;29.30;47.20;101530;;;;569995;248;24147;-76
2023/05/13 07:47:08;;;;;;;9.00;5.12;;;47.40;29.20;47.40;101534;;;;570224;248;23104;-78
2023/05/13 07:49:39;;;;;;;14.65;6.43;;;47.70;29.60;47.70;101534;;;;570257;248;23137;-78
2023/05/13 07:52:04;;;;;;;9.98;6.45;;;48.00;28.70;47.70;101526;;;;567710;248;23191;-80
2023/05/13 07:54:32;;;;;;;7.12;5.37;;;48.20;28.60;48.00;101526;;;;569696;248;23083;-80
2023/05/13 07:57:00;;;;;;;7.57;5.20;;;48.40;28.50;47.90;101523;;;;569764;248;23102;-75
2023/05/13 07:59:28;;;;;;;9.60;5.80;;;48.50;28.10;47.60;101525;;;;569788;248;23086;-76
2023/05/13 08:01:56;;;;;;;11.48;5.78;;;48.20;27.90;47.90;101525;;;;569806;248;23104;-75
2023/05/13 08:04:24;;;;;;;10.30;5.40;;;48.40;28.00;48.10;101529;;;;569743;248;23133;-73
2023/05/13 08:06:51;;;;;;;14.35;6.00;;;48.60;27.50;47.90;101522;;;;569659;248;24153;-76
2023/05/13 08:09:19;;;;;;;13.02;5.85;;;48.60;27.60;48.10;101524;;;;569556;248;23097;-80
2023/05/13 08:11:47;;;;;;;6.95;5.43;;;48.70;27.30;47.70;101530;;;;569847;248;23097;-74
2023/05/13 08:14:15;;;;;;;12.70;5.60;;;48.60;27.40;47.80;101530;;;;569607;248;23119;-74
2023/05/13 08:16:44;;;;;;;9.80;5.72;;;48.80;27.40;48.20;101535;;;;569501;248;23102;-79
2023/05/13 08:19:14;;;;;;;6.10;4.43;;;48.80;27.40;48.20;101533;;;;569594;248;23085;-79
2023/05/13 08:21:42;;;;;;;6.10;4.87;;;48.90;27.70;48.50;101535;;;;569508;248;23105;-78
2023/05/13 08:24:11;;;;;;;9.73;4.82;;;49.00;27.30;48.60;101528;;;;569887;248;23085;-74
2023/05/13 08:26:39;;;;;;;6.53;5.03;;;49.20;27.10;48.50;101531;;;;569588;248;24154;-75
2023/05/13 08:29:11;;;;;;;13.30;5.65;;;49.20;27.30;48.50;101533;;;;569404;248;23199;-75
2023/05/13 08:31:36;;;;;;;8.85;5.55;;;49.10;27.30;48.50;101532;;;;569581;248;23117;-74
2023/05/13 08:34:04;;;;;;;11.73;5.22;;;49.10;27.30;48.60;101539;;;;569447;248;24155;-74
2023/05/13 08:36:32;;;;;;;10.48;5.05;;;49.20;27.20;48.70;101527;;;;569638;248;23121;-75
2023/05/13 08:39:00;;;;;;;11.68;6.50;;;49.30;27.20;48.50;101533;;;;569500;248;23151;-73
2023/05/13 08:41:28;;;;;;;6.15;4.82;;;49.30;26.60;48.30;101532;;;;570478;247;23146;-74
2023/05/13 08:43:56;;;;;;;8.23;4.28;;;49.10;26.70;48.00;101525;;;;570802;247;23105;-74
2023/05/13 08:46:24;;;;;;;10.45;5.30;;;49.00;26.80;48.30;101527;;;;570343;247;23197;-78
2023/05/13 08:48:52;;;;;;;7.87;4.72;;;49.00;26.70;48.30;101522;;;;570293;247;23103;-76
2023/05/13 08:51:19;;;;;;;4.35;3.95;;;49.20;26.40;47.90;101524;;;;570022;248;23108;-75
2023/05/13 08:53:47;;;;;;;6.72;4.12;;;49.00;26.60;48.00;101533;;;;570225;248;23124;-73
2023/05/13 08:56:15;;;;;;;7.72;4.05;;;49.00;26.50;47.90;101530;;;;570024;248;23145;-76
2023/05/13 08:58:43;;;;;;;13.07;5.15;;;49.00;26.40;48.10;101527;;;;569977;248;23109;-79
2023/05/13 09:01:14;;;;;;;11.48;5.25;;;49.00;26.50;48.30;101529;;;;565223;248;35378;-78
2023/05/13 09:03:39;;;;;;;11.30;4.97;;;49.20;26.30;47.70;101524;;;;570119;248;23117;-78
2023/05/13 09:06:10;;;;;;;8.52;5.37;;;49.00;26.00;47.30;101524;;;;569251;248;23141;-78
2023/05/13 09:08:35;;;;;;;10.15;4.85;;;48.80;26.30;47.30;101530;;;;578462;248;23187;-79
2023/05/13 09:11:04;;;;;;;6.97;4.43;;;48.70;26.70;47.40;101524;;;;570089;248;24120;-77
2023/05/13 09:13:35;;;;;;;10.23;5.22;;;48.80;26.70;47.50;101521;;;;569814;248;23097;-77
2023/05/13 09:16:01;;;;;;;5.40;4.22;;;49.00;26.60;47.90;101526;;;;569690;248;23119;-76
2023/05/13 09:18:30;;;;;;;14.05;5.10;;;49.20;26.20;48.00;101523;;;;569600;248;23117;-77
2023/05/13 09:20:57;;;;;;;9.20;4.57;;;49.20;26.10;47.30;101525;;;;569465;248;23164;-77
2023/05/13 09:23:25;;;;;;;9.10;4.68;;;48.90;26.40;47.60;101528;;;;569658;248;23160;-81
2023/05/13 09:25:53;;;;;;;8.25;4.72;;;48.90;26.30;48.00;101526;;;;569445;248;23122;-76
2023/05/13 09:28:22;;;;;;;6.12;4.40;;;49.10;26.20;47.60;101523;;;;569478;248;23114;-75
2023/05/13 09:30:50;;;;;;;13.13;4.97;;;49.00;26.40;47.70;101532;;;;569595;248;23101;-78
2023/05/13 09:33:18;;;;;;;9.05;4.68;;;49.00;26.50;48.00;101522;;;;569019;248;23119;-78
2023/05/13 09:35:54;;;;;;;8.23;4.07;;;49.20;26.40;47.80;101518;;;;569545;248;23100;-77
2023/05/13 09:38:24;;;;;;;8.15;4.90;;;49.30;26.20;48.10;101517;;;;569474;248;23124;-80
2023/05/13 09:40:52;;;;;;;8.32;6.43;;;49.40;26.50;48.20;101518;;;;569632;248;23105;-79
2023/05/13 09:43:25;;;;;;;11.85;5.90;;;49.30;25.90;47.50;101512;;;;573134;248;23113;-80
2023/05/13 09:45:55;;;;;;;11.45;5.85;;;48.90;26.30;46.60;101516;;;;572822;248;24149;-82
2023/05/13 09:48:26;;;;;;;7.30;5.20;;;48.90;26.30;46.70;101515;;;;569632;248;23155;-79
2023/05/13 09:50:58;;;;;;;13.90;6.53;;;48.70;26.90;47.30;101517;;;;568911;248;23145;-78
2023/05/13 09:53:22;;;;;;;14.87;6.93;;;48.80;26.30;47.30;101517;;;;570559;247;23096;-80
2023/05/13 09:55:53;;;;;;;9.05;5.65;;;49.00;26.50;47.60;101514;;;;570565;247;23127;-79
2023/05/13 09:58:24;;;;;;;18.55;7.37;;;49.30;26.00;47.20;101517;;;;578928;247;23143;-79
2023/05/13 10:00:48;;;;;;;13.80;6.50;;;49.20;26.20;46.80;101514;;;;570002;247;23164;-79
2023/05/13 10:03:16;;;;;;;14.73;7.25;;;49.00;26.50;46.90;101510;;;;570118;248;23135;-77
2023/05/13 10:05:44;;;;;;;9.07;6.97;;;48.90;26.30;46.80;101508;;;;569904;248;23114;-77
2023/05/13 10:08:15;;;;;;;35.35;14.05;;;48.90;26.10;46.90;101501;;;;569812;248;23132;-77
2023/05/13 10:10:44;;;;;;;12.75;5.47;;;48.70;26.50;46.50;101501;;;;569842;248;23171;-79
2023/05/13 10:13:12;;;;;;;13.75;5.30;;;48.10;27.20;45.90;101503;;;;569388;248;23123;-80
2023/05/13 10:15:49;;;;;;;11.12;4.95;;;48.10;26.60;45.20;101506;;;;569861;248;23107;-81
2023/05/13 10:18:17;;;;;;;11.25;5.03;;;47.20;26.70;44.10;101505;;;;577699;248;23131;-80
2023/05/13 10:20:45;;;;;;;14.02;5.47;;;46.20;26.80;43.40;101509;;;;569604;248;23104;-82
2023/05/13 10:23:13;;;;;;;12.82;5.70;;;45.40;27.10;42.80;101498;;;;578238;248;23155;-80
2023/05/13 10:25:41;;;;;;;12.20;4.87;;;44.60;27.60;42.10;101500;;;;569747;248;24202;-82
2023/05/13 10:28:12;;;;;;;9.45;5.12;;;43.90;27.70;41.10;101495;;;;569500;248;23141;-81
2023/05/13 10:30:37;;;;;;;9.90;4.78;;;43.10;27.90;40.00;101499;;;;577660;248;23137;-79
2023/05/13 10:33:05;;;;;;;11.43;5.22;;;42.00;28.40;38.90;101489;;;;569403;248;23090;-80
2023/05/13 10:35:32;;;;;;;5.32;4.00;;;40.90;29.10;37.90;101489;;;;569381;248;23093;-75
2023/05/13 10:38:04;;;;;;;11.40;4.55;;;38.10;29.80;36.20;101493;;;;569417;248;24113;-82
2023/05/13 10:40:44;;;;;;;11.15;4.85;;;38.00;29.80;34.50;101485;;;;569329;248;23137;-81
2023/05/13 10:43:15;;;;;;;27.48;6.15;;;34.20;32.10;32.80;101478;;;;569509;248;23126;-80
2023/05/13 10:45:49;;;;;;;11.55;5.40;;;32.60;33.60;31.40;101473;;;;563006;248;35369;-80
2023/05/13 10:48:20;;;;;;;11.57;4.82;;;31.20;34.80;30.10;101470;;;;569514;248;23101;-79
2023/05/13 10:50:53;;;;;;;10.90;5.03;;;29.80;36.10;29.00;101462;;;;568960;248;23153;-78
2023/05/13 10:53:27;;;;;;;11.57;4.35;;;29.00;36.90;28.10;101466;;;;569662;248;23105;-79
2023/05/13 10:55:52;;;;;;;11.20;3.75;;;28.70;37.10;27.40;101466;;;;569207;248;23113;-78
2023/05/13 10:58:21;;;;;;;12.20;4.37;;;27.90;38.70;27.00;101468;;;;569392;248;23166;-74
2023/05/13 11:00:49;;;;;;;14.13;5.28;;;27.00;39.10;26.40;101460;;;;569302;248;23125;-76
2023/05/13 11:03:22;;;;;;;9.90;3.80;;;26.60;41.00;26.10;101464;;;;569307;248;23130;-80
2023/05/13 11:05:47;;;;;;;9.80;4.47;;;26.20;40.10;25.70;101460;;;;570366;247;23120;-72
2023/05/13 11:08:37;;;;;;;12.10;5.43;;;25.80;39.60;25.30;101456;;;;569061;247;23131;-74
2023/05/13 11:11:23;;;;;;;10.67;4.40;;;25.30;41.00;24.90;101450;;;;569998;247;23125;-78
2023/05/13 11:13:54;;;;;;;13.63;4.43;;;25.20;41.90;24.50;101455;;;;570190;248;23101;-75